createdAt,value
2016-05-29T00:00:17.307Z,1006.13
2016-05-29T00:01:17.341Z,1006.09
2016-05-29T00:02:17.360Z,1006.05
2016-05-29T00:03:17.393Z,1006.07
2016-05-29T00:04:17.412Z,1006.11
2016-05-29T00:05:17.446Z,1006.05
2016-05-29T00:06:17.465Z,1006.05
2016-05-29T00:07:17.498Z,1006.04
2016-05-29T00:08:17.517Z,1006.05
2016-05-29T00:09:17.551Z,1006.05
2016-05-29T00:10:17.569Z,1006.06
2016-05-29T00:11:17.587Z,1006.05
2016-05-29T00:12:17.620Z,1006.05
2016-05-29T00:13:17.640Z,1006.04
2016-05-29T00:14:17.673Z,1006
2016-05-29T00:15:17.707Z,1005.97
2016-05-29T00:16:17.725Z,1005.94
2016-05-29T00:17:17.744Z,1005.93
2016-05-29T00:18:17.762Z,1005.89
2016-05-29T00:19:17.797Z,1005.87
2016-05-29T00:20:17.830Z,1005.89
2016-05-29T00:21:17.849Z,1005.91
2016-05-29T00:22:17.867Z,1005.86
2016-05-29T00:23:17.900Z,1005.81
2016-05-29T00:24:17.919Z,1005.82
2016-05-29T00:25:17.953Z,1005.84
2016-05-29T00:26:17.971Z,1005.75
2016-05-29T00:27:18.005Z,1005.74
2016-05-29T00:28:18.023Z,1005.69
2016-05-29T00:29:18.041Z,1005.65
2016-05-29T00:30:18.076Z,1005.63
2016-05-29T00:31:18.094Z,1005.67
2016-05-29T00:32:18.128Z,1005.63
2016-05-29T00:33:18.146Z,1005.68
2016-05-29T00:34:18.180Z,1005.63
2016-05-29T00:35:18.449Z,1005.64
2016-05-29T00:36:18.217Z,1005.64
2016-05-29T00:37:18.251Z,1005.64
2016-05-29T00:38:18.269Z,1005.67
2016-05-29T00:39:18.303Z,1005.63
2016-05-29T00:40:18.321Z,1005.59
2016-05-29T00:41:18.356Z,1005.64
2016-05-29T00:42:18.373Z,1005.61
2016-05-29T00:43:18.392Z,1005.7
2016-05-29T00:44:18.426Z,1005.74
2016-05-29T00:45:18.444Z,1005.72
2016-05-29T00:46:18.478Z,1005.67
2016-05-29T00:47:18.512Z,1005.73
2016-05-29T00:48:18.530Z,1005.78
2016-05-29T00:49:18.549Z,1005.79
2016-05-29T00:50:18.583Z,1005.8
2016-05-29T00:51:18.600Z,1005.78
2016-05-29T00:52:18.636Z,1005.75
2016-05-29T00:53:18.653Z,1005.67
2016-05-29T00:54:18.672Z,1005.68
2016-05-29T00:55:18.705Z,1005.64
2016-05-29T00:56:18.724Z,1005.66
2016-05-29T00:57:18.757Z,1005.67
2016-05-29T00:58:18.777Z,1005.61
2016-05-29T00:59:18.810Z,1005.57
2016-05-29T01:00:18.828Z,1005.48
2016-05-29T01:01:18.863Z,1005.48
2016-05-29T01:02:18.880Z,1005.46
2016-05-29T01:03:18.915Z,1005.43
2016-05-29T01:04:18.932Z,1005.44
2016-05-29T01:05:18.998Z,1005.41
2016-05-29T01:06:18.985Z,1005.43
2016-05-29T01:07:19.004Z,1005.4
2016-05-29T01:08:19.037Z,1005.37
2016-05-29T01:09:19.056Z,1005.33
2016-05-29T01:10:19.073Z,1005.28
2016-05-29T01:11:19.108Z,1005.27
2016-05-29T01:12:19.126Z,1005.27
2016-05-29T01:13:19.159Z,1005.24
2016-05-29T01:14:19.178Z,1005.21
2016-05-29T01:15:19.212Z,1005.24
2016-05-29T01:16:19.231Z,1005.21
2016-05-29T01:17:19.264Z,1005.22
2016-05-29T01:18:19.283Z,1005.24
2016-05-29T01:19:19.301Z,1005.2
2016-05-29T01:20:19.335Z,1005.18
2016-05-29T01:21:19.369Z,1005.15
2016-05-29T01:22:19.388Z,1005.09
2016-05-29T01:23:19.405Z,1005.1
2016-05-29T01:24:19.439Z,1005.04
2016-05-29T01:25:19.458Z,1005.08
2016-05-29T01:26:19.492Z,1005.12
2016-05-29T01:27:19.510Z,1005.15
2016-05-29T01:28:19.529Z,1005.12
2016-05-29T01:29:19.563Z,1005.12
2016-05-29T01:30:19.581Z,1005.1
2016-05-29T01:31:19.615Z,1005.09
2016-05-29T01:32:19.633Z,1005.05
2016-05-29T01:33:19.668Z,1005.04
2016-05-29T01:34:19.685Z,1005
2016-05-29T01:35:20.126Z,1004.99
2016-05-29T01:36:19.738Z,1004.95
2016-05-29T01:37:19.756Z,1004.96
2016-05-29T01:38:19.790Z,1004.95
2016-05-29T01:39:19.809Z,1004.92
2016-05-29T01:40:19.842Z,1004.92
2016-05-29T01:41:19.876Z,1004.93
2016-05-29T01:42:19.895Z,1004.95
2016-05-29T01:43:19.912Z,1004.95
2016-05-29T01:44:19.947Z,1004.95
2016-05-29T01:45:19.965Z,1004.94
2016-05-29T01:46:19.984Z,1005
2016-05-29T01:47:20.017Z,1005.05
2016-05-29T01:48:20.036Z,1005.09
2016-05-29T01:49:20.069Z,1005.1
2016-05-29T01:50:20.103Z,1005.1
2016-05-29T01:51:20.122Z,1005.14
2016-05-29T01:52:20.139Z,1005.13
2016-05-29T01:53:20.158Z,1005.1
2016-05-29T01:54:20.192Z,1005.12
2016-05-29T01:55:20.210Z,1005.15
2016-05-29T01:56:20.244Z,1005.16
2016-05-29T01:57:20.263Z,1005.2
2016-05-29T01:58:20.296Z,1005.25
2016-05-29T01:59:20.316Z,1005.22
2016-05-29T02:00:20.333Z,1005.2
2016-05-29T02:01:20.368Z,1005.24
2016-05-29T02:02:20.385Z,1005.25
2016-05-29T02:03:20.419Z,1005.19
2016-05-29T02:04:20.438Z,1005.16
2016-05-29T02:05:20.472Z,1005.13
2016-05-29T02:06:20.491Z,1005.16
2016-05-29T02:07:20.523Z,1005.18
2016-05-29T02:08:20.543Z,1005.2
2016-05-29T02:09:20.561Z,1005.21
2016-05-29T02:10:20.595Z,1005.22
2016-05-29T02:11:20.612Z,1005.24
2016-05-29T02:12:20.648Z,1005.17
2016-05-29T02:13:20.665Z,1005.18
2016-05-29T02:14:20.699Z,1005.16
2016-05-29T02:15:20.717Z,1005.14
2016-05-29T02:16:20.736Z,1005.1
2016-05-29T02:17:20.770Z,1005.1
2016-05-29T02:18:20.789Z,1005.11
2016-05-29T02:19:20.822Z,1005.16
2016-05-29T02:20:20.840Z,1005.12
2016-05-29T02:21:20.874Z,1005.15
2016-05-29T02:22:20.892Z,1005.17
2016-05-29T02:23:20.911Z,1005.14
2016-05-29T02:24:20.944Z,1005.15
2016-05-29T02:25:20.963Z,1005.14
2016-05-29T02:26:20.997Z,1005.07
2016-05-29T02:27:21.031Z,1005.07
2016-05-29T02:28:21.049Z,1005
2016-05-29T02:29:21.068Z,1005
2016-05-29T02:30:21.086Z,1005.01
2016-05-29T02:31:21.119Z,1005.02
2016-05-29T02:32:21.138Z,1005
2016-05-29T02:33:21.172Z,1004.95
2016-05-29T02:34:21.191Z,1004.94
2016-05-29T02:35:21.209Z,1004.91
2016-05-29T02:36:21.243Z,1004.91
2016-05-29T02:37:21.260Z,1004.95
2016-05-29T02:38:21.295Z,1004.96
2016-05-29T02:39:21.313Z,1004.96
2016-05-29T02:40:21.347Z,1004.95
2016-05-29T02:41:21.366Z,1004.94
2016-05-29T02:42:21.399Z,1004.96
2016-05-29T02:43:21.418Z,1004.94
2016-05-29T02:44:21.436Z,1004.93
2016-05-29T02:45:21.470Z,1004.97
2016-05-29T02:46:21.489Z,1004.95
2016-05-29T02:47:21.522Z,1004.97
2016-05-29T02:48:21.541Z,1004.92
2016-05-29T02:49:21.575Z,1004.88
2016-05-29T02:50:21.593Z,1004.84
2016-05-29T02:51:21.627Z,1004.82
2016-05-29T02:52:21.644Z,1004.82
2016-05-29T02:53:21.664Z,1004.77
2016-05-29T02:54:21.697Z,1004.73
2016-05-29T02:55:21.716Z,1004.73
2016-05-29T02:56:21.749Z,1004.69
2016-05-29T02:57:21.769Z,1004.67
2016-05-29T02:58:21.802Z,1004.72
2016-05-29T02:59:21.819Z,1004.69
2016-05-29T03:00:21.839Z,1004.66
2016-05-29T03:01:21.872Z,1004.69
2016-05-29T03:02:21.891Z,1004.68
2016-05-29T03:03:21.924Z,1004.68
2016-05-29T03:04:21.943Z,1004.63
2016-05-29T03:05:21.977Z,1004.61
2016-05-29T03:06:21.995Z,1004.58
2016-05-29T03:07:22.013Z,1004.57
2016-05-29T03:08:22.048Z,1004.57
2016-05-29T03:09:22.082Z,1004.55
2016-05-29T03:10:22.099Z,1004.57
2016-05-29T03:11:22.118Z,1004.56
2016-05-29T03:12:22.137Z,1004.59
2016-05-29T03:13:22.186Z,1004.6
2016-05-29T03:14:22.189Z,1004.6
2016-05-29T03:15:22.223Z,1004.59
2016-05-29T03:16:22.257Z,1004.59
2016-05-29T03:17:22.275Z,1004.62
2016-05-29T03:18:22.292Z,1004.6
2016-05-29T03:19:22.327Z,1004.62
2016-05-29T03:20:22.345Z,1004.63
2016-05-29T03:21:22.364Z,1004.64
2016-05-29T03:22:22.397Z,1004.64
2016-05-29T03:23:22.417Z,1004.59
2016-05-29T03:24:22.450Z,1004.61
2016-05-29T03:25:22.468Z,1004.58
2016-05-29T03:26:22.503Z,1004.6
2016-05-29T03:27:22.520Z,1004.59
2016-05-29T03:28:22.539Z,1004.62
2016-05-29T03:29:22.572Z,1004.57
2016-05-29T03:30:22.591Z,1004.57
2016-05-29T03:31:22.625Z,1004.53
2016-05-29T03:32:22.643Z,1004.52
2016-05-29T03:33:22.677Z,1004.48
2016-05-29T03:34:22.696Z,1004.49
2016-05-29T03:35:22.729Z,1004.42
2016-05-29T03:36:23.185Z,1004.46
2016-05-29T03:37:22.766Z,1004.45
2016-05-29T03:38:22.800Z,1004.44
2016-05-29T03:39:22.834Z,1004.39
2016-05-29T03:40:22.852Z,1004.38
2016-05-29T03:41:22.871Z,1004.41
2016-05-29T03:42:22.904Z,1004.42
2016-05-29T03:43:22.923Z,1004.36
2016-05-29T03:44:22.941Z,1004.41
2016-05-29T03:45:22.975Z,1004.35
2016-05-29T03:46:22.993Z,1004.29
2016-05-29T03:47:23.028Z,1004.32
2016-05-29T03:48:23.045Z,1004.32
2016-05-29T03:49:23.079Z,1004.28
2016-05-29T03:50:23.098Z,1004.29
2016-05-29T03:51:23.132Z,1004.33
2016-05-29T03:52:23.150Z,1004.29
2016-05-29T03:53:23.169Z,1004.29
2016-05-29T03:54:23.203Z,1004.29
2016-05-29T03:55:23.220Z,1004.27
2016-05-29T03:56:23.255Z,1004.28
2016-05-29T03:57:23.273Z,1004.26
2016-05-29T03:58:23.307Z,1004.29
2016-05-29T03:59:23.325Z,1004.28
2016-05-29T04:00:23.343Z,1004.33
2016-05-29T04:01:23.378Z,1004.36
2016-05-29T04:02:23.396Z,1004.33
2016-05-29T04:03:23.429Z,1004.3
2016-05-29T04:04:23.449Z,1004.29
2016-05-29T04:05:23.483Z,1004.27
2016-05-29T04:06:23.813Z,1004.24
2016-05-29T04:07:23.534Z,1004.24
2016-05-29T04:08:23.553Z,1004.26
2016-05-29T04:09:23.571Z,1004.26
2016-05-29T04:10:23.604Z,1004.28
2016-05-29T04:11:23.623Z,1004.29
2016-05-29T04:12:23.657Z,1004.31
2016-05-29T04:13:23.676Z,1004.23
2016-05-29T04:14:23.693Z,1004.26
2016-05-29T04:15:23.728Z,1004.23
2016-05-29T04:16:23.746Z,1004.21
2016-05-29T04:17:23.779Z,1004.22
2016-05-29T04:18:23.798Z,1004.2
2016-05-29T04:19:23.817Z,1004.18
2016-05-29T04:20:23.851Z,1004.16
2016-05-29T04:21:23.884Z,1004.11
2016-05-29T04:22:23.903Z,1004.16
2016-05-29T04:23:23.937Z,1004.14
2016-05-29T04:24:23.955Z,1004.12
2016-05-29T04:25:23.973Z,1004.12
2016-05-29T04:26:24.007Z,1004.11
2016-05-29T04:27:24.026Z,1004.11
2016-05-29T04:28:24.059Z,1004.11
2016-05-29T04:29:24.077Z,1004.08
2016-05-29T04:30:24.096Z,1004.09
2016-05-29T04:31:24.130Z,1004.1
2016-05-29T04:32:24.149Z,1004.09
2016-05-29T04:33:24.182Z,1004.09
2016-05-29T04:34:24.201Z,1004.09
2016-05-29T04:35:24.235Z,1004.09
2016-05-29T04:36:24.253Z,1004.06
2016-05-29T04:37:24.271Z,1004.06
2016-05-29T04:38:24.304Z,1004.03
2016-05-29T04:39:24.324Z,1004.01
2016-05-29T04:40:24.357Z,1003.98
2016-05-29T04:41:24.376Z,1004
2016-05-29T04:42:24.409Z,1003.95
2016-05-29T04:43:24.429Z,1003.92
2016-05-29T04:44:24.462Z,1003.92
2016-05-29T04:45:24.479Z,1003.94
2016-05-29T04:46:24.515Z,1003.89
2016-05-29T04:47:24.532Z,1003.95
2016-05-29T04:48:24.551Z,1003.92
2016-05-29T04:49:24.585Z,1003.92
2016-05-29T04:50:24.603Z,1003.98
2016-05-29T04:51:24.746Z,1003.96
2016-05-29T04:52:24.655Z,1004
2016-05-29T04:53:24.689Z,1003.99
2016-05-29T04:54:24.708Z,1003.98
2016-05-29T04:55:24.726Z,1004
2016-05-29T04:56:24.759Z,1003.96
2016-05-29T04:57:24.778Z,1003.98
2016-05-29T04:58:24.812Z,1004.01
2016-05-29T04:59:24.830Z,1003.99
2016-05-29T05:00:24.864Z,1003.98
2016-05-29T05:01:24.898Z,1004.02
2016-05-29T05:02:24.917Z,1004.01
2016-05-29T05:03:24.935Z,1004.03
2016-05-29T05:04:24.953Z,1004.03
2016-05-29T05:05:24.987Z,1004.08
2016-05-29T05:06:25.005Z,1004.08
2016-05-29T05:07:25.039Z,1004.15
2016-05-29T05:08:25.057Z,1004.17
2016-05-29T05:09:25.092Z,1004.19
2016-05-29T05:10:25.110Z,1004.23
2016-05-29T05:11:25.129Z,1004.23
2016-05-29T05:12:25.162Z,1004.25
2016-05-29T05:13:25.212Z,1004.24
2016-05-29T05:14:25.215Z,1004.18
2016-05-29T05:15:25.232Z,1004.17
2016-05-29T05:16:25.268Z,1004.2
2016-05-29T05:17:25.285Z,1004.2
2016-05-29T05:18:25.319Z,1004.19
2016-05-29T05:19:25.337Z,1004.24
2016-05-29T05:20:25.714Z,1004.17
2016-05-29T05:21:25.781Z,1004.2
2016-05-29T05:22:25.423Z,1004.2
2016-05-29T05:23:25.442Z,1004.26
2016-05-29T05:24:25.475Z,1004.26
2016-05-29T05:25:25.495Z,1004.22
2016-05-29T05:26:25.528Z,1004.17
2016-05-29T05:27:25.546Z,1004.18
2016-05-29T05:28:25.565Z,1004.17
2016-05-29T05:29:25.598Z,1004.16
2016-05-29T05:30:25.617Z,1004.13
2016-05-29T05:31:25.650Z,1004.2
2016-05-29T05:32:25.669Z,1004.23
2016-05-29T05:33:25.703Z,1004.24
2016-05-29T05:34:25.721Z,1004.17
2016-05-29T05:35:25.755Z,1004.13
2016-05-29T05:36:25.774Z,1004.16
2016-05-29T05:37:25.792Z,1004.09
2016-05-29T05:38:25.826Z,1004.1
2016-05-29T05:39:25.844Z,1004.1
2016-05-29T05:40:25.878Z,1004.09
2016-05-29T05:41:25.896Z,1004.1
2016-05-29T05:42:25.930Z,1004.07
2016-05-29T05:43:25.948Z,1004.05
2016-05-29T05:44:25.982Z,1004
2016-05-29T05:45:26.001Z,1003.94
2016-05-29T05:46:26.035Z,1003.92
2016-05-29T05:47:26.053Z,1003.9
2016-05-29T05:48:26.087Z,1003.88
2016-05-29T05:49:26.106Z,1003.92
2016-05-29T05:50:26.139Z,1003.91
2016-05-29T05:51:26.158Z,1003.9
2016-05-29T05:52:26.192Z,1003.85
2016-05-29T05:53:26.209Z,1003.84
2016-05-29T05:54:26.245Z,1003.86
2016-05-29T05:55:26.262Z,1003.83
2016-05-29T05:56:26.295Z,1003.86
2016-05-29T05:57:26.314Z,1003.85
2016-05-29T05:58:26.348Z,1003.83
2016-05-29T05:59:26.367Z,1003.85
2016-05-29T06:00:26.400Z,1003.86
2016-05-29T06:01:26.419Z,1003.82
2016-05-29T06:02:26.452Z,1003.78
2016-05-29T06:03:26.472Z,1003.79
2016-05-29T06:04:26.505Z,1003.8
2016-05-29T06:05:26.524Z,1003.82
2016-05-29T06:06:26.838Z,1003.73
2016-05-29T06:07:26.576Z,1003.76
2016-05-29T06:08:26.610Z,1003.75
2016-05-29T06:09:26.627Z,1003.8
2016-05-29T06:10:26.662Z,1003.77
2016-05-29T06:11:26.680Z,1003.8
2016-05-29T06:12:26.714Z,1003.84
2016-05-29T06:13:26.732Z,1003.8
2016-05-29T06:14:26.766Z,1003.87
2016-05-29T06:15:26.785Z,1003.87
2016-05-29T06:16:26.818Z,1003.92
2016-05-29T06:17:26.852Z,1003.94
2016-05-29T06:18:26.871Z,1003.94
2016-05-29T06:19:26.905Z,1003.95
2016-05-29T06:20:26.923Z,1003.97
2016-05-29T06:21:26.957Z,1003.95
2016-05-29T06:22:26.990Z,1003.96
2016-05-29T06:23:27.009Z,1003.96
2016-05-29T06:24:27.028Z,1003.97
2016-05-29T06:25:27.061Z,1003.92
2016-05-29T06:26:27.095Z,1003.92
2016-05-29T06:27:27.114Z,1003.88
2016-05-29T06:28:27.148Z,1003.91
2016-05-29T06:29:27.166Z,1003.9
2016-05-29T06:30:27.200Z,1003.92
2016-05-29T06:31:27.219Z,1003.93
2016-05-29T06:32:27.253Z,1003.87
2016-05-29T06:33:27.286Z,1003.91
2016-05-29T06:34:27.304Z,1003.87
2016-05-29T06:35:27.339Z,1003.86
2016-05-29T06:36:27.357Z,1003.83
2016-05-29T06:37:27.391Z,1003.83
2016-05-29T06:38:27.408Z,1003.78
2016-05-29T06:39:27.444Z,1003.72
2016-05-29T06:40:27.461Z,1003.72
2016-05-29T06:41:27.495Z,1003.73
2016-05-29T06:42:27.514Z,1003.74
2016-05-29T06:43:27.547Z,1003.69
2016-05-29T06:44:27.581Z,1003.73
2016-05-29T06:45:27.599Z,1003.72
2016-05-29T06:46:27.635Z,1003.76
2016-05-29T06:47:27.652Z,1003.77
2016-05-29T06:48:27.685Z,1003.75
2016-05-29T06:49:27.720Z,1003.78
2016-05-29T06:50:27.737Z,1003.82
2016-05-29T06:51:27.773Z,1003.79
2016-05-29T06:52:27.790Z,1003.82
2016-05-29T06:53:27.824Z,1003.87
2016-05-29T06:54:27.843Z,1003.9
2016-05-29T06:55:27.877Z,1003.94
2016-05-29T06:56:27.911Z,1003.94
2016-05-29T06:57:27.928Z,1003.94
2016-05-29T06:58:27.963Z,1003.96
2016-05-29T06:59:27.981Z,1003.9
2016-05-29T07:00:28.015Z,1003.97
2016-05-29T07:01:28.033Z,1003.97
2016-05-29T07:02:28.067Z,1004
2016-05-29T07:03:28.086Z,1003.94
2016-05-29T07:04:28.119Z,1003.94
2016-05-29T07:05:28.153Z,1004
2016-05-29T07:06:28.172Z,1003.96
2016-05-29T07:07:28.206Z,1003.97
2016-05-29T07:08:28.224Z,1003.94
2016-05-29T07:09:28.258Z,1003.95
2016-05-29T07:10:28.277Z,1003.9
2016-05-29T07:11:28.310Z,1003.91
2016-05-29T07:12:28.329Z,1003.89
2016-05-29T07:13:28.363Z,1003.87
2016-05-29T07:14:28.396Z,1003.91
2016-05-29T07:15:28.415Z,1003.89
2016-05-29T07:16:28.449Z,1003.93
2016-05-29T07:17:28.467Z,1003.88
2016-05-29T07:18:28.501Z,1003.89
2016-05-29T07:19:28.519Z,1003.92
2016-05-29T07:20:28.554Z,1003.91
2016-05-29T07:21:29.071Z,1003.9
2016-05-29T07:22:28.606Z,1003.89
2016-05-29T07:23:28.639Z,1003.86
2016-05-29T07:24:28.657Z,1003.88
2016-05-29T07:25:28.692Z,1003.9
2016-05-29T07:26:28.710Z,1003.85
2016-05-29T07:27:28.744Z,1003.88
2016-05-29T07:28:28.778Z,1003.85
2016-05-29T07:29:28.796Z,1003.88
2016-05-29T07:30:28.814Z,1003.84
2016-05-29T07:31:28.848Z,1003.86
2016-05-29T07:32:28.883Z,1003.84
2016-05-29T07:33:28.900Z,1003.87
2016-05-29T07:34:28.935Z,1003.89
2016-05-29T07:35:28.953Z,1003.85
2016-05-29T07:36:28.987Z,1003.84
2016-05-29T07:37:29.021Z,1003.86
2016-05-29T07:38:29.038Z,1003.88
2016-05-29T07:39:29.073Z,1003.91
2016-05-29T07:40:29.107Z,1003.92
2016-05-29T07:41:29.125Z,1003.96
2016-05-29T07:42:29.143Z,1003.92
2016-05-29T07:43:29.178Z,1003.94
2016-05-29T07:44:29.211Z,1003.91
2016-05-29T07:45:29.229Z,1003.94
2016-05-29T07:46:29.264Z,1003.92
2016-05-29T07:47:29.282Z,1003.91
2016-05-29T07:48:29.316Z,1003.87
2016-05-29T07:49:29.334Z,1003.91
2016-05-29T07:50:29.368Z,1003.9
2016-05-29T07:51:29.637Z,1003.84
2016-05-29T07:52:29.436Z,1003.85
2016-05-29T07:53:29.439Z,1003.87
2016-05-29T07:54:29.473Z,1003.88
2016-05-29T07:55:29.507Z,1003.88
2016-05-29T07:56:29.525Z,1003.86
2016-05-29T07:57:29.559Z,1003.9
2016-05-29T07:58:29.593Z,1003.89
2016-05-29T07:59:29.611Z,1003.89
2016-05-29T08:00:29.645Z,1003.88
2016-05-29T08:01:29.664Z,1003.88
2016-05-29T08:02:29.714Z,1003.88
2016-05-29T08:03:29.716Z,1003.87
2016-05-29T08:04:29.749Z,1003.85
2016-05-29T08:05:29.767Z,1003.85
2016-05-29T08:06:30.083Z,1003.87
2016-05-29T08:07:29.836Z,1003.85
2016-05-29T08:08:29.854Z,1003.88
2016-05-29T08:09:29.888Z,1003.87
2016-05-29T08:10:29.906Z,1003.88
2016-05-29T08:11:29.941Z,1003.86
2016-05-29T08:12:29.958Z,1003.88
2016-05-29T08:13:29.993Z,1003.85
2016-05-29T08:14:30.026Z,1003.85
2016-05-29T08:15:30.045Z,1003.91
2016-05-29T08:16:30.079Z,1003.88
2016-05-29T08:17:30.096Z,1003.87
2016-05-29T08:18:30.132Z,1003.9
2016-05-29T08:19:30.149Z,1003.88
2016-05-29T08:20:30.668Z,1003.93
2016-05-29T08:21:30.670Z,1003.92
2016-05-29T08:22:30.236Z,1003.94
2016-05-29T08:23:30.270Z,1003.95
2016-05-29T08:24:30.288Z,1003.94
2016-05-29T08:25:30.321Z,1003.96
2016-05-29T08:26:30.340Z,1004
2016-05-29T08:27:30.396Z,1003.99
2016-05-29T08:28:30.453Z,1004.06
2016-05-29T08:29:30.493Z,1004.02
2016-05-29T08:30:30.548Z,1004.02
2016-05-29T08:31:30.590Z,1004.04
2016-05-29T08:32:30.631Z,1004.08
2016-05-29T08:33:30.658Z,1004.08
2016-05-29T08:34:30.700Z,1004.09
2016-05-29T08:35:30.727Z,1004.07
2016-05-29T08:36:31.238Z,1004.09
2016-05-29T08:37:30.805Z,1004.11
2016-05-29T08:38:30.827Z,1004.11
2016-05-29T08:39:30.864Z,1004.1
2016-05-29T08:40:30.886Z,1004.1
2016-05-29T08:41:30.922Z,1004.07
2016-05-29T08:42:30.942Z,1004.12
2016-05-29T08:43:30.976Z,1004.06
2016-05-29T08:44:30.996Z,1004.08
2016-05-29T08:45:31.030Z,1004.03
2016-05-29T08:46:31.064Z,1004.04
2016-05-29T08:47:31.083Z,1004
2016-05-29T08:48:31.118Z,1004.01
2016-05-29T08:49:31.152Z,1004.01
2016-05-29T08:50:31.171Z,1003.97
2016-05-29T08:51:31.205Z,1004.03
2016-05-29T08:52:31.224Z,1003.98
2016-05-29T08:53:31.258Z,1003.99
2016-05-29T08:54:31.277Z,1004.01
2016-05-29T08:55:31.312Z,1004
2016-05-29T08:56:31.345Z,1004.04
2016-05-29T08:57:31.676Z,1004.05
2016-05-29T08:58:31.398Z,1004.07
2016-05-29T08:59:31.416Z,1004.06
2016-05-29T09:00:31.450Z,1004.09
2016-05-29T09:01:31.500Z,1004.06
2016-05-29T09:02:32.456Z,1004.09
2016-05-29T09:03:31.520Z,1004.11
2016-05-29T09:04:31.555Z,1004.15
2016-05-29T09:05:31.572Z,1004.14
2016-05-29T09:06:31.606Z,1004.12
2016-05-29T09:07:31.641Z,1004.16
2016-05-29T09:08:31.675Z,1004.14
2016-05-29T09:09:31.693Z,1004.18
2016-05-29T09:10:31.711Z,1004.17
2016-05-29T09:11:31.776Z,1004.14
2016-05-29T09:12:32.342Z,1004.18
2016-05-29T09:13:31.813Z,1004.13
2016-05-29T09:14:31.847Z,1004.13
2016-05-29T09:15:31.849Z,1004.11
2016-05-29T09:16:31.883Z,1004.11
2016-05-29T09:17:31.918Z,1004.09
2016-05-29T09:18:31.935Z,1004.09
2016-05-29T09:19:31.970Z,1004.1
2016-05-29T09:20:31.988Z,1004.09
2016-05-29T09:21:32.022Z,1004.07
2016-05-29T09:22:32.040Z,1004.06
2016-05-29T09:23:32.074Z,1004.09
2016-05-29T09:24:32.109Z,1004.13
2016-05-29T09:25:32.126Z,1004.12
2016-05-29T09:26:32.160Z,1004.14
2016-05-29T09:27:32.179Z,1004.09
2016-05-29T09:28:32.212Z,1004.12
2016-05-29T09:29:32.231Z,1004.1
2016-05-29T09:30:32.265Z,1004.1
2016-05-29T09:31:32.298Z,1004.1
2016-05-29T09:32:32.317Z,1004.09
2016-05-29T09:33:32.351Z,1004.12
2016-05-29T09:34:32.370Z,1004.13
2016-05-29T09:35:32.419Z,1004.17
2016-05-29T09:36:32.437Z,1004.14
2016-05-29T09:37:32.925Z,1004.16
2016-05-29T09:38:32.489Z,1004.2
2016-05-29T09:39:32.508Z,1004.17
2016-05-29T09:40:32.541Z,1004.17
2016-05-29T09:41:32.560Z,1004.19
2016-05-29T09:42:33.938Z,1004.17
2016-05-29T09:43:32.628Z,1004.13
2016-05-29T09:44:32.646Z,1004.22
2016-05-29T09:45:32.665Z,1004.16
2016-05-29T09:46:32.699Z,1004.15
2016-05-29T09:47:32.733Z,1004.19
2016-05-29T09:48:32.782Z,1004.18
2016-05-29T09:49:32.785Z,1004.14
2016-05-29T09:50:32.819Z,1004.13
2016-05-29T09:51:32.868Z,1004.15
2016-05-29T09:52:32.871Z,1004.14
2016-05-29T09:53:32.889Z,1004.12
2016-05-29T09:54:32.924Z,1004.11
2016-05-29T09:55:32.942Z,1004.1
2016-05-29T09:56:32.976Z,1004.07
2016-05-29T09:57:33.009Z,1004.07
2016-05-29T09:58:33.028Z,1004.04
2016-05-29T09:59:34.296Z,1004.02
2016-05-29T10:00:33.080Z,1004.05
2016-05-29T10:01:33.115Z,1004.03
2016-05-29T10:02:33.148Z,1004
2016-05-29T10:03:33.167Z,1004
2016-05-29T10:04:33.200Z,1004.05
2016-05-29T10:05:33.218Z,1004.05
2016-05-29T10:06:33.362Z,1004.04
2016-05-29T10:07:33.270Z,1004.07
2016-05-29T10:08:33.305Z,1004.06
2016-05-29T10:09:33.338Z,1004.09
2016-05-29T10:10:33.358Z,1004.06
2016-05-29T10:11:33.391Z,1004.07
2016-05-29T10:12:33.409Z,1004.07
2016-05-29T10:13:33.443Z,1004.05
2016-05-29T10:14:33.743Z,1004.07
2016-05-29T10:15:33.496Z,1004.04
2016-05-29T10:16:33.529Z,1003.97
2016-05-29T10:17:33.547Z,1004.02
2016-05-29T10:18:33.581Z,1003.97
2016-05-29T10:19:33.600Z,1003.99
2016-05-29T10:20:33.634Z,1004
2016-05-29T10:21:33.652Z,1004.03
2016-05-29T10:22:33.685Z,1004.03
2016-05-29T10:23:33.721Z,1004.09
2016-05-29T10:24:33.738Z,1004.07
2016-05-29T10:25:33.772Z,1004.05
2016-05-29T10:26:33.791Z,1004.03
2016-05-29T10:27:33.824Z,1004.05
2016-05-29T10:28:33.843Z,1004.02
2016-05-29T10:29:33.876Z,1003.98
2016-05-29T10:30:33.911Z,1004.02
2016-05-29T10:31:33.929Z,1003.98
2016-05-29T10:32:33.962Z,1003.98
2016-05-29T10:33:33.981Z,1003.93
2016-05-29T10:34:34.015Z,1003.94
2016-05-29T10:35:34.034Z,1003.89
2016-05-29T10:36:34.083Z,1003.92
2016-05-29T10:37:34.101Z,1003.9
2016-05-29T10:38:34.119Z,1003.93
2016-05-29T10:39:34.153Z,1003.94
2016-05-29T10:40:34.172Z,1003.92
2016-05-29T10:41:34.206Z,1003.96
2016-05-29T10:42:34.239Z,1003.96
2016-05-29T10:43:34.258Z,1003.98
2016-05-29T10:44:34.292Z,1003.93
2016-05-29T10:45:34.310Z,1003.97
2016-05-29T10:46:34.344Z,1003.96
2016-05-29T10:47:34.363Z,1003.93
2016-05-29T10:48:34.397Z,1003.95
2016-05-29T10:49:34.430Z,1003.95
2016-05-29T10:50:34.699Z,1003.95
2016-05-29T10:51:34.483Z,1003.89
2016-05-29T10:52:34.501Z,1003.94
2016-05-29T10:53:34.535Z,1003.94
2016-05-29T10:54:34.569Z,1003.94
2016-05-29T10:55:34.587Z,1003.93
2016-05-29T10:56:34.621Z,1003.94
2016-05-29T10:57:34.640Z,1003.89
2016-05-29T10:58:34.673Z,1003.87
2016-05-29T10:59:34.707Z,1003.9
2016-05-29T11:00:34.726Z,1003.87
2016-05-29T11:01:34.760Z,1003.89
2016-05-29T11:02:34.778Z,1003.84
2016-05-29T11:03:34.812Z,1003.83
2016-05-29T11:04:34.831Z,1003.87
2016-05-29T11:05:34.864Z,1003.85
2016-05-29T11:06:35.023Z,1003.85
2016-05-29T11:07:34.917Z,1003.85
2016-05-29T11:08:34.950Z,1003.87
2016-05-29T11:09:34.969Z,1003.86
2016-05-29T11:10:35.003Z,1003.84
2016-05-29T11:11:35.036Z,1003.85
2016-05-29T11:12:35.055Z,1003.81
2016-05-29T11:13:35.089Z,1003.82
2016-05-29T11:14:35.107Z,1003.81
2016-05-29T11:15:35.141Z,1003.78
2016-05-29T11:16:35.221Z,1003.77
2016-05-29T11:17:35.193Z,1003.78
2016-05-29T11:18:35.227Z,1003.79
2016-05-29T11:19:35.246Z,1003.74
2016-05-29T11:20:35.279Z,1003.76
2016-05-29T11:21:35.298Z,1003.75
2016-05-29T11:22:35.332Z,1003.69
2016-05-29T11:23:35.366Z,1003.73
2016-05-29T11:24:35.384Z,1003.75
2016-05-29T11:25:35.418Z,1003.72
2016-05-29T11:26:35.436Z,1003.74
2016-05-29T11:27:35.471Z,1003.73
2016-05-29T11:28:35.504Z,1003.73
2016-05-29T11:29:35.522Z,1003.74
2016-05-29T11:30:35.557Z,1003.73
2016-05-29T11:31:35.590Z,1003.74
2016-05-29T11:32:35.609Z,1003.7
2016-05-29T11:33:35.626Z,1003.7
2016-05-29T11:34:35.661Z,1003.74
2016-05-29T11:35:35.898Z,1003.7
2016-05-29T11:36:35.823Z,1003.73
2016-05-29T11:37:35.747Z,1003.68
2016-05-29T11:38:35.765Z,1003.66
2016-05-29T11:39:35.799Z,1003.63
2016-05-29T11:40:35.818Z,1003.64
2016-05-29T11:41:35.852Z,1003.63
2016-05-29T11:42:35.886Z,1003.59
2016-05-29T11:43:35.903Z,1003.59
2016-05-29T11:44:35.938Z,1003.63
2016-05-29T11:45:35.956Z,1003.62
2016-05-29T11:46:35.990Z,1003.54
2016-05-29T11:47:36.008Z,1003.55
2016-05-29T11:48:36.042Z,1003.58
2016-05-29T11:49:36.076Z,1003.55
2016-05-29T11:50:36.094Z,1003.55
2016-05-29T11:51:36.129Z,1003.59
2016-05-29T11:52:36.146Z,1003.59
2016-05-29T11:53:36.180Z,1003.61
2016-05-29T11:54:36.215Z,1003.66
2016-05-29T11:55:36.233Z,1003.63
2016-05-29T11:56:36.267Z,1003.63
2016-05-29T11:57:36.285Z,1003.64
2016-05-29T11:58:36.319Z,1003.6
2016-05-29T11:59:36.337Z,1003.6
2016-05-29T12:00:36.371Z,1003.64
2016-05-29T12:01:36.406Z,1003.66
2016-05-29T12:02:36.423Z,1003.63
2016-05-29T12:03:36.457Z,1003.68
2016-05-29T12:04:36.476Z,1003.63
2016-05-29T12:05:36.510Z,1003.64
2016-05-29T12:06:36.809Z,1003.69
2016-05-29T12:07:36.562Z,1003.74
2016-05-29T12:08:36.596Z,1003.75
2016-05-29T12:09:36.614Z,1003.78